createdAt,value
2018-09-08T00:00:11.779Z,16.50
2018-09-08T00:02:40.850Z,16.30
2018-09-08T00:05:09.986Z,16.30
2018-09-08T00:07:39.604Z,16.20
2018-09-08T00:10:10.510Z,16.20
2018-09-08T00:12:39.590Z,16.10
2018-09-08T00:15:14.158Z,16.00
2018-09-08T00:17:48.759Z,16.20
2018-09-08T00:20:23.313Z,16.10
2018-09-08T00:22:57.760Z,16.20
2018-09-08T00:25:32.296Z,16.20
2018-09-08T00:28:08.008Z,16.20
2018-09-08T00:30:37.104Z,16.00
2018-09-08T00:33:06.185Z,16.20
2018-09-08T00:35:35.324Z,16.30
2018-09-08T00:38:04.471Z,16.20
2018-09-08T00:40:33.586Z,16.10
2018-09-08T00:43:02.737Z,16.20
2018-09-08T00:45:31.870Z,16.00
2018-09-08T00:48:00.980Z,15.70
2018-09-08T00:50:30.125Z,15.60
2018-09-08T00:52:59.233Z,15.80
2018-09-08T00:55:28.385Z,15.70
2018-09-08T00:57:57.598Z,15.60
2018-09-08T01:00:26.773Z,15.60
2018-09-08T01:02:55.893Z,15.60
2018-09-08T01:05:25.007Z,15.50
2018-09-08T01:07:54.149Z,15.60
2018-09-08T01:10:23.259Z,15.50
2018-09-08T01:12:52.391Z,15.50
2018-09-08T01:15:21.484Z,15.50
2018-09-08T01:17:50.574Z,15.60
2018-09-08T01:20:19.693Z,15.50
2018-09-08T01:22:48.807Z,15.50
2018-09-08T01:25:17.930Z,15.60
2018-09-08T01:27:47.025Z,15.80
2018-09-08T01:30:16.126Z,15.70
2018-09-08T01:32:45.203Z,15.50
2018-09-08T01:35:14.309Z,15.20
2018-09-08T01:37:43.498Z,15.30
2018-09-08T01:40:12.614Z,15.50
2018-09-08T01:42:41.727Z,15.70
2018-09-08T01:45:10.830Z,15.70
2018-09-08T01:47:40.634Z,15.60
2018-09-08T01:50:09.750Z,15.60
2018-09-08T01:52:38.836Z,15.60
2018-09-08T01:55:07.978Z,15.60
2018-09-08T01:57:37.076Z,15.60
2018-09-08T02:00:07.009Z,15.50
2018-09-08T02:02:36.107Z,15.50
2018-09-08T02:05:05.745Z,15.40
2018-09-08T02:07:35.263Z,15.30
2018-09-08T02:10:04.422Z,15.40
2018-09-08T02:12:33.505Z,15.30
2018-09-08T02:15:02.619Z,15.30
2018-09-08T02:17:31.798Z,15.30
2018-09-08T02:20:00.914Z,15.10
2018-09-08T02:22:30.047Z,15.20
2018-09-08T02:24:59.188Z,15.10
2018-09-08T02:27:28.379Z,15.10
2018-09-08T02:29:57.483Z,15.00
2018-09-08T02:32:26.565Z,14.90
2018-09-08T02:34:55.803Z,14.60
2018-09-08T02:37:24.894Z,14.70
2018-09-08T02:39:53.989Z,14.70
2018-09-08T02:42:23.081Z,14.60
2018-09-08T02:44:52.176Z,14.80
2018-09-08T02:47:21.500Z,14.70
2018-09-08T02:50:01.979Z,14.70
2018-09-08T02:52:30.031Z,14.90
2018-09-08T02:54:58.047Z,14.60
2018-09-08T02:57:26.042Z,14.30
2018-09-08T02:59:54.023Z,14.40
2018-09-08T03:02:22.009Z,14.60
2018-09-08T03:04:49.987Z,14.50
2018-09-08T03:07:18.018Z,14.70
2018-09-08T03:09:46.227Z,14.70
2018-09-08T03:12:14.213Z,14.50
2018-09-08T03:14:42.179Z,14.50
2018-09-08T03:17:10.181Z,14.60
2018-09-08T03:19:38.155Z,14.60
2018-09-08T03:22:06.138Z,14.50
2018-09-08T03:24:34.090Z,14.40
2018-09-08T03:27:02.136Z,14.50
2018-09-08T03:29:30.114Z,14.50
2018-09-08T03:31:58.169Z,14.50
2018-09-08T03:34:26.143Z,14.50
2018-09-08T03:36:54.175Z,14.40
2018-09-08T03:39:22.143Z,14.30
2018-09-08T03:41:50.152Z,14.40
2018-09-08T03:44:18.127Z,14.60
2018-09-08T03:46:46.109Z,14.40
2018-09-08T03:49:14.138Z,14.50
2018-09-08T03:51:42.132Z,14.70
2018-09-08T03:54:10.174Z,14.70
2018-09-08T03:56:38.167Z,14.60
2018-09-08T03:59:06.177Z,14.50
2018-09-08T04:01:34.161Z,14.30
2018-09-08T04:04:03.274Z,14.20
2018-09-08T04:06:32.445Z,14.20
2018-09-08T04:09:01.586Z,14.20
2018-09-08T04:11:30.703Z,14.20
2018-09-08T04:13:59.835Z,13.90
2018-09-08T04:16:28.939Z,13.90
2018-09-08T04:18:58.095Z,13.90
2018-09-08T04:21:27.233Z,14.00
2018-09-08T04:23:56.404Z,14.00
2018-09-08T04:26:25.526Z,13.70
2018-09-08T04:28:54.702Z,13.60
2018-09-08T04:31:23.819Z,13.50
2018-09-08T04:33:52.962Z,13.70
2018-09-08T04:36:22.209Z,13.50
2018-09-08T04:38:51.326Z,13.50
2018-09-08T04:41:20.398Z,13.60
2018-09-08T04:43:49.505Z,13.50
2018-09-08T04:46:18.652Z,13.10
2018-09-08T04:48:47.745Z,13.10
2018-09-08T04:51:16.835Z,13.30
2018-09-08T04:53:45.931Z,13.50
2018-09-08T04:56:15.123Z,13.90
2018-09-08T04:58:44.211Z,13.80
2018-09-08T05:01:13.297Z,13.60
2018-09-08T05:03:42.483Z,13.60
2018-09-08T05:06:13.441Z,13.60
2018-09-08T05:08:42.683Z,13.60
2018-09-08T05:11:12.099Z,13.60
2018-09-08T05:13:41.354Z,13.70
2018-09-08T05:16:11.065Z,13.80
2018-09-08T05:18:40.196Z,13.60
2018-09-08T05:21:09.267Z,13.70
2018-09-08T05:23:38.354Z,13.60
2018-09-08T05:26:07.501Z,13.70
2018-09-08T05:28:36.622Z,13.70
2018-09-08T05:31:05.767Z,13.80
2018-09-08T05:33:34.872Z,14.00
2018-09-08T05:36:03.990Z,14.10
2018-09-08T05:38:33.108Z,14.00
2018-09-08T05:41:02.181Z,14.00
2018-09-08T05:43:31.273Z,13.90
2018-09-08T05:46:00.365Z,13.80
2018-09-08T05:48:29.461Z,13.80
2018-09-08T05:50:58.540Z,13.70
2018-09-08T05:53:27.631Z,13.70
2018-09-08T05:55:56.715Z,13.90
2018-09-08T05:58:25.860Z,13.80
2018-09-08T06:00:54.916Z,13.90
2018-09-08T06:03:24.005Z,14.00
2018-09-08T06:05:53.115Z,14.00
2018-09-08T06:08:22.252Z,14.00
2018-09-08T06:10:51.299Z,14.00
2018-09-08T06:13:20.400Z,14.10
2018-09-08T06:15:49.657Z,14.00
2018-09-08T06:18:18.826Z,14.20
2018-09-08T06:20:47.861Z,14.40
2018-09-08T06:23:16.984Z,14.30
2018-09-08T06:25:46.064Z,14.30
2018-09-08T06:28:15.189Z,14.40
2018-09-08T06:30:44.265Z,14.30
2018-09-08T06:33:13.374Z,14.40
2018-09-08T06:35:42.554Z,14.60
2018-09-08T06:38:11.656Z,14.70
2018-09-08T06:40:40.750Z,14.80
2018-09-08T06:43:09.854Z,14.80
2018-09-08T06:45:40.460Z,15.10
2018-09-08T06:48:09.530Z,15.40
2018-09-08T06:50:38.634Z,15.70
2018-09-08T06:53:07.716Z,16.00
2018-09-08T06:55:36.814Z,16.10
2018-09-08T06:58:05.992Z,16.30
2018-09-08T07:00:35.094Z,16.50
2018-09-08T07:03:04.172Z,16.70
2018-09-08T07:05:33.258Z,16.90
2018-09-08T07:08:02.329Z,17.10
2018-09-08T07:10:31.424Z,17.20
2018-09-08T07:13:00.508Z,17.40
2018-09-08T07:15:29.638Z,17.60
2018-09-08T07:17:58.728Z,18.00
2018-09-08T07:20:27.827Z,18.10
2018-09-08T07:22:56.894Z,18.20
2018-09-08T07:25:25.988Z,18.40
2018-09-08T07:27:55.060Z,18.70
2018-09-08T07:30:24.145Z,19.10
2018-09-08T07:32:53.235Z,19.20
2018-09-08T07:35:22.347Z,19.30
2018-09-08T07:37:51.471Z,19.50
2018-09-08T07:40:20.614Z,19.70
2018-09-08T07:42:49.707Z,19.80
2018-09-08T07:45:18.927Z,20.00
2018-09-08T07:47:48.022Z,19.80
2018-09-08T07:50:17.154Z,19.90
2018-09-08T07:52:46.249Z,20.10
2018-09-08T07:55:15.423Z,20.50
2018-09-08T07:57:44.627Z,20.50
2018-09-08T08:00:13.742Z,20.60
2018-09-08T08:02:42.921Z,21.00
2018-09-08T08:05:12.055Z,20.80
2018-09-08T08:07:41.134Z,20.90
2018-09-08T08:10:10.354Z,21.20
2018-09-08T08:12:39.459Z,21.10
2018-09-08T08:15:08.701Z,21.10
2018-09-08T08:17:37.799Z,21.10
2018-09-08T08:20:06.994Z,21.10
2018-09-08T08:22:36.071Z,21.10
2018-09-08T08:25:05.229Z,21.40
2018-09-08T08:27:34.330Z,21.90
2018-09-08T08:30:03.472Z,22.30
2018-09-08T08:32:32.617Z,22.10
2018-09-08T08:35:01.845Z,22.20
2018-09-08T08:37:30.990Z,22.20
2018-09-08T08:40:00.143Z,22.40
2018-09-08T08:42:29.230Z,22.70
2018-09-08T08:44:58.400Z,23.00
2018-09-08T08:47:27.506Z,23.00
2018-09-08T08:50:07.951Z,22.90
2018-09-08T08:52:48.298Z,22.50
2018-09-08T08:55:17.488Z,22.60
2018-09-08T08:57:46.596Z,22.50
2018-09-08T09:00:15.724Z,22.80
2018-09-08T09:02:44.858Z,23.10
2018-09-08T09:05:14.032Z,23.10
2018-09-08T09:07:43.129Z,23.20
2018-09-08T09:10:12.271Z,23.50
2018-09-08T09:12:41.429Z,23.40
2018-09-08T09:15:11.015Z,23.90
2018-09-08T09:17:39.750Z,24.20
2018-09-08T09:20:20.260Z,24.30
2018-09-08T09:23:00.693Z,24.10
2018-09-08T09:25:29.878Z,24.30
2018-09-08T09:27:59.017Z,24.40
2018-09-08T09:30:28.163Z,24.40
2018-09-08T09:32:57.283Z,24.30
2018-09-08T09:35:26.655Z,24.50
2018-09-08T09:37:55.734Z,24.30
2018-09-08T09:40:24.822Z,24.30
2018-09-08T09:42:53.918Z,24.30
2018-09-08T09:45:23.278Z,23.70
2018-09-08T09:47:52.371Z,23.40
2018-09-08T09:50:21.438Z,23.60
2018-09-08T09:52:50.544Z,24.00
2018-09-08T09:55:19.622Z,24.30
2018-09-08T09:57:48.816Z,24.10
2018-09-08T10:00:23.273Z,24.10
2018-09-08T10:02:57.709Z,23.70
2018-09-08T10:05:26.769Z,23.30
2018-09-08T10:07:55.886Z,23.20
2018-09-08T10:10:26.495Z,23.50
2018-09-08T10:12:55.658Z,24.10
2018-09-08T10:15:24.811Z,24.70
2018-09-08T10:17:53.901Z,24.30
2018-09-08T10:20:23.898Z,24.40
2018-09-08T10:22:53.021Z,24.50
2018-09-08T10:25:22.130Z,24.50
2018-09-08T10:27:51.221Z,24.80
2018-09-08T10:30:20.341Z,25.30
2018-09-08T10:32:49.421Z,25.50
2018-09-08T10:35:18.522Z,25.60
2018-09-08T10:37:47.666Z,25.90
2018-09-08T10:40:16.855Z,25.50
2018-09-08T10:42:45.926Z,26.40
2018-09-08T10:45:15.065Z,25.90
2018-09-08T10:47:44.193Z,26.60
2018-09-08T10:50:13.444Z,26.70
2018-09-08T10:52:44.963Z,27.30
2018-09-08T10:55:14.084Z,27.40
2018-09-08T10:57:43.205Z,27.40
2018-09-08T11:00:12.810Z,26.60
2018-09-08T11:02:42.194Z,26.30
2018-09-08T11:05:11.170Z,26.60
2018-09-08T11:07:40.300Z,26.90
2018-09-08T11:10:09.467Z,26.90
2018-09-08T11:12:38.599Z,26.30
2018-09-08T11:15:09.212Z,26.90
2018-09-08T11:17:38.369Z,27.20
2018-09-08T11:20:08.741Z,27.50
2018-09-08T11:22:37.867Z,27.60
2018-09-08T11:25:07.003Z,27.80
2018-09-08T11:27:36.138Z,27.60
2018-09-08T11:30:05.751Z,27.50
2018-09-08T11:32:35.566Z,27.70
2018-09-08T11:35:04.871Z,27.70
2018-09-08T11:37:33.990Z,27.80
2018-09-08T11:40:03.065Z,28.00
2018-09-08T11:42:32.170Z,28.20
2018-09-08T11:45:01.347Z,27.80
2018-09-08T11:47:30.450Z,27.50
2018-09-08T11:49:59.527Z,27.40
2018-09-08T11:52:28.618Z,27.60
2018-09-08T11:54:57.700Z,27.50
2018-09-08T11:57:26.782Z,27.60
2018-09-08T11:59:55.855Z,27.80
2018-09-08T12:02:24.980Z,27.40
2018-09-08T12:04:54.081Z,27.80
2018-09-08T12:07:23.239Z,27.60
2018-09-08T12:09:52.344Z,28.00
2018-09-08T12:12:21.472Z,27.50
2018-09-08T12:14:50.626Z,28.00
2018-09-08T12:17:19.742Z,27.90
2018-09-08T12:19:48.857Z,28.00
2018-09-08T12:22:18.019Z,28.00
2018-09-08T12:24:47.269Z,28.10
2018-09-08T12:27:16.349Z,28.00
2018-09-08T12:29:45.488Z,28.00
2018-09-08T12:32:14.580Z,28.60
2018-09-08T12:34:43.689Z,28.70
2018-09-08T12:37:12.810Z,28.20
2018-09-08T12:39:41.905Z,28.30
2018-09-08T12:42:10.985Z,28.40
2018-09-08T12:44:40.175Z,28.50
2018-09-08T12:47:09.249Z,28.60
2018-09-08T12:49:38.358Z,28.40
2018-09-08T12:52:07.488Z,28.20
2018-09-08T12:54:36.662Z,27.50
2018-09-08T12:57:05.947Z,28.30
2018-09-08T12:59:35.425Z,28.50
2018-09-08T13:02:04.334Z,28.50
2018-09-08T13:04:33.686Z,28.30
2018-09-08T13:07:02.773Z,28.10
2018-09-08T13:09:31.864Z,28.70
2018-09-08T13:12:00.954Z,28.30
2018-09-08T13:14:30.067Z,27.50
2018-09-08T13:16:59.154Z,28.20
2018-09-08T13:19:28.283Z,27.60
2018-09-08T13:21:57.354Z,26.70
2018-09-08T13:24:26.638Z,26.80
2018-09-08T13:26:55.706Z,27.80
2018-09-08T13:29:24.817Z,27.40
2018-09-08T13:31:53.890Z,27.40
2018-09-08T13:34:23.096Z,28.00
2018-09-08T13:36:52.226Z,28.30
2018-09-08T13:39:21.352Z,28.20
2018-09-08T13:41:50.442Z,28.40
2018-09-08T13:44:19.687Z,28.40
2018-09-08T13:46:48.842Z,28.50
2018-09-08T13:49:17.943Z,28.20
2018-09-08T13:51:47.046Z,26.70
2018-09-08T13:54:16.168Z,26.90
2018-09-08T13:56:45.262Z,27.60
2018-09-08T13:59:14.384Z,28.10
2018-09-08T14:01:43.479Z,28.30
2018-09-08T14:04:12.657Z,28.10
2018-09-08T14:06:41.739Z,28.40
2018-09-08T14:09:10.887Z,28.30
2018-09-08T14:11:39.992Z,28.50
2018-09-08T14:14:09.107Z,28.20
2018-09-08T14:16:38.252Z,28.10
2018-09-08T14:19:07.367Z,28.50
2018-09-08T14:21:36.494Z,28.60
2018-09-08T14:24:05.862Z,28.20
2018-09-08T14:26:35.016Z,28.50
2018-09-08T14:29:04.134Z,28.60
2018-09-08T14:31:33.271Z,28.50
2018-09-08T14:34:02.383Z,28.60
2018-09-08T14:36:31.582Z,28.50
2018-09-08T14:39:00.673Z,28.40
2018-09-08T14:41:29.868Z,28.40
2018-09-08T14:43:59.163Z,28.40
2018-09-08T14:46:28.290Z,28.10
2018-09-08T14:48:57.408Z,28.20
2018-09-08T14:51:26.543Z,28.30
2018-09-08T14:53:55.703Z,28.30
2018-09-08T14:56:24.835Z,28.20
2018-09-08T14:58:53.977Z,28.30
2018-09-08T15:01:23.124Z,28.10
2018-09-08T15:03:52.237Z,28.10
2018-09-08T15:06:21.368Z,28.00
2018-09-08T15:08:50.470Z,28.10
2018-09-08T15:11:19.602Z,28.00
2018-09-08T15:13:48.704Z,27.80
2018-09-08T15:16:17.833Z,27.80
2018-09-08T15:18:47.051Z,27.90
2018-09-08T15:21:16.168Z,27.90
2018-09-08T15:23:45.335Z,27.80
2018-09-08T15:26:14.507Z,27.80
2018-09-08T15:28:43.557Z,27.60
2018-09-08T15:31:12.676Z,27.50
2018-09-08T15:33:41.806Z,27.50
2018-09-08T15:36:10.956Z,27.40
2018-09-08T15:38:40.032Z,27.40
2018-09-08T15:41:09.151Z,27.10
2018-09-08T15:43:38.226Z,27.20
2018-09-08T15:46:07.339Z,27.10
2018-09-08T15:48:36.419Z,27.10
2018-09-08T15:51:05.536Z,26.90
2018-09-08T15:53:34.642Z,26.80
2018-09-08T15:56:03.753Z,26.90
2018-09-08T15:58:32.868Z,26.90
2018-09-08T16:01:01.942Z,26.70
2018-09-08T16:03:31.138Z,26.50
2018-09-08T16:06:00.266Z,26.40
2018-09-08T16:08:29.334Z,26.10
2018-09-08T16:10:58.455Z,26.10
2018-09-08T16:13:27.669Z,26.00
2018-09-08T16:15:56.753Z,26.00
2018-09-08T16:18:25.860Z,26.10
2018-09-08T16:20:54.995Z,25.90
2018-09-08T16:23:24.095Z,25.70
2018-09-08T16:25:53.169Z,25.40
2018-09-08T16:28:22.384Z,25.30
2018-09-08T16:30:51.666Z,25.40
2018-09-08T16:33:20.775Z,25.20
2018-09-08T16:35:49.907Z,25.00
2018-09-08T16:38:19.031Z,24.90
2018-09-08T16:40:48.147Z,24.70
2018-09-08T16:43:17.343Z,24.60
2018-09-08T16:45:46.491Z,24.40
2018-09-08T16:48:15.635Z,24.40
2018-09-08T16:50:44.746Z,24.30
2018-09-08T16:53:13.953Z,24.20
2018-09-08T16:55:43.052Z,24.10
2018-09-08T16:58:12.178Z,24.10
2018-09-08T17:00:41.288Z,23.90
2018-09-08T17:03:11.443Z,23.80
2018-09-08T17:05:40.626Z,23.70
2018-09-08T17:08:13.990Z,23.70
2018-09-08T17:10:43.246Z,23.70
2018-09-08T17:13:13.675Z,23.60
2018-09-08T17:15:43.487Z,23.40
2018-09-08T17:18:12.990Z,23.40
2018-09-08T17:20:43.100Z,23.20
2018-09-08T17:23:13.486Z,23.10
2018-09-08T17:25:44.134Z,22.90
2018-09-08T17:28:13.520Z,22.30
2018-09-08T17:30:43.892Z,21.90
2018-09-08T17:33:15.416Z,21.60
2018-09-08T17:35:44.707Z,21.60
2018-09-08T17:38:14.683Z,21.50
2018-09-08T17:40:44.697Z,21.60
2018-09-08T17:43:14.733Z,21.70
2018-09-08T17:45:45.334Z,21.50
2018-09-08T17:48:14.526Z,21.00
2018-09-08T17:50:44.434Z,20.50
2018-09-08T17:53:14.842Z,20.60
2018-09-08T17:55:43.957Z,20.30
2018-09-08T17:58:13.246Z,20.30
2018-09-08T18:00:42.530Z,20.10
2018-09-08T18:03:12.043Z,20.10
2018-09-08T18:05:41.753Z,20.20
2018-09-08T18:08:10.954Z,20.10
2018-09-08T18:10:40.141Z,20.00
2018-09-08T18:13:09.410Z,19.90
2018-09-08T18:15:38.520Z,19.80
2018-09-08T18:18:07.637Z,19.70
2018-09-08T18:20:36.757Z,19.50
2018-09-08T18:23:06.061Z,19.00
2018-09-08T18:25:35.138Z,18.90
2018-09-08T18:28:04.283Z,18.90
2018-09-08T18:30:34.556Z,18.90
2018-09-08T18:33:03.951Z,18.80
2018-09-08T18:35:33.079Z,18.70
2018-09-08T18:38:02.223Z,18.70
2018-09-08T18:40:31.375Z,18.80
2018-09-08T18:43:00.566Z,18.50
2018-09-08T18:45:29.712Z,17.80
2018-09-08T18:47:58.890Z,17.50
2018-09-08T18:50:28.027Z,17.40
2018-09-08T18:52:57.178Z,17.80
2018-09-08T18:55:26.306Z,17.70
2018-09-08T18:57:55.422Z,17.70
2018-09-08T19:00:24.624Z,17.60
2018-09-08T19:02:53.734Z,17.60
2018-09-08T19:05:23.522Z,17.50
2018-09-08T19:07:54.192Z,17.50
2018-09-08T19:10:23.385Z,17.70
2018-09-08T19:12:52.533Z,17.20
2018-09-08T19:15:21.670Z,17.40
2018-09-08T19:17:50.773Z,17.30
2018-09-08T19:20:25.635Z,17.40
2018-09-08T19:22:54.869Z,17.30
2018-09-08T19:25:24.030Z,17.00
2018-09-08T19:27:53.236Z,17.00
2018-09-08T19:30:22.374Z,16.80
2018-09-08T19:32:52.164Z,16.50
2018-09-08T19:35:26.803Z,16.80
2018-09-08T19:37:56.745Z,16.60
2018-09-08T19:40:31.206Z,16.60
2018-09-08T19:43:00.294Z,16.40
2018-09-08T19:45:29.395Z,16.70
2018-09-08T19:48:06.064Z,16.90
2018-09-08T19:50:35.679Z,16.80
2018-09-08T19:53:10.161Z,16.60
2018-09-08T19:55:39.426Z,16.30
2018-09-08T19:58:13.785Z,16.50
2018-09-08T20:00:42.941Z,16.60
2018-09-08T20:03:12.026Z,16.50
2018-09-08T20:05:41.131Z,16.10
2018-09-08T20:08:10.220Z,15.90
2018-09-08T20:10:39.333Z,16.10
2018-09-08T20:13:08.570Z,16.10
2018-09-08T20:15:37.966Z,16.10
2018-09-08T20:18:07.039Z,16.00
2018-09-08T20:20:36.265Z,15.90
2018-09-08T20:23:05.555Z,15.50
2018-09-08T20:25:34.903Z,15.60
2018-09-08T20:28:06.995Z,15.70
2018-09-08T20:30:36.175Z,15.70
2018-09-08T20:33:05.315Z,15.50
2018-09-08T20:35:34.431Z,15.20
2018-09-08T20:38:03.578Z,15.50
2018-09-08T20:40:32.732Z,15.60
2018-09-08T20:43:01.858Z,15.80
2018-09-08T20:45:30.977Z,15.80
2018-09-08T20:48:00.116Z,15.20
2018-09-08T20:50:29.399Z,15.10
2018-09-08T20:52:58.658Z,15.40
2018-09-08T20:55:27.757Z,15.60
2018-09-08T20:57:56.905Z,15.20
2018-09-08T21:00:26.392Z,15.30
2018-09-08T21:02:55.550Z,15.40
2018-09-08T21:05:24.668Z,15.40
2018-09-08T21:07:53.815Z,15.40
2018-09-08T21:10:22.938Z,15.50
2018-09-08T21:12:53.190Z,15.30
2018-09-08T21:15:22.302Z,15.10
2018-09-08T21:17:51.445Z,14.80
2018-09-08T21:20:20.679Z,14.40
2018-09-08T21:22:49.899Z,14.80
2018-09-08T21:25:19.771Z,15.00
2018-09-08T21:27:51.989Z,15.00
2018-09-08T21:30:21.110Z,14.80
2018-09-08T21:32:50.354Z,15.00
2018-09-08T21:35:19.462Z,15.00
2018-09-08T21:37:48.601Z,14.90
2018-09-08T21:40:17.831Z,15.00
2018-09-08T21:42:46.995Z,14.80
2018-09-08T21:45:16.358Z,14.50
2018-09-08T21:47:45.470Z,14.60
2018-09-08T21:50:14.573Z,14.50
2018-09-08T21:52:44.030Z,14.40
2018-09-08T21:55:13.993Z,14.60
2018-09-08T21:57:43.092Z,14.70
2018-09-08T22:00:12.199Z,14.50
2018-09-08T22:02:42.349Z,14.00
2018-09-08T22:05:11.475Z,14.10
2018-09-08T22:07:40.595Z,14.40
2018-09-08T22:10:10.057Z,14.40
2018-09-08T22:12:39.262Z,14.10
2018-09-08T22:15:08.776Z,14.10
2018-09-08T22:17:37.855Z,14.00
2018-09-08T22:20:06.980Z,13.30
2018-09-08T22:22:36.346Z,13.70
2018-09-08T22:25:05.677Z,13.80
2018-09-08T22:27:34.773Z,13.80
2018-09-08T22:30:04.325Z,13.40
2018-09-08T22:32:33.420Z,13.50
2018-09-08T22:35:02.559Z,13.80
2018-09-08T22:37:31.687Z,13.80
2018-09-08T22:40:00.823Z,13.80
2018-09-08T22:42:30.012Z,13.90
2018-09-08T22:44:59.708Z,13.90
2018-09-08T22:47:28.833Z,13.80
2018-09-08T22:49:57.950Z,13.90
2018-09-08T22:52:27.695Z,13.80
2018-09-08T22:54:56.821Z,13.10
2018-09-08T22:57:25.902Z,13.10
2018-09-08T22:59:55.027Z,13.30
2018-09-08T23:02:24.913Z,13.30
2018-09-08T23:04:54.178Z,13.10
2018-09-08T23:07:23.262Z,13.50
2018-09-08T23:09:53.437Z,13.50
2018-09-08T23:12:23.362Z,13.40
2018-09-08T23:14:53.461Z,13.40
2018-09-08T23:17:23.695Z,13.50
2018-09-08T23:19:53.819Z,13.50
2018-09-08T23:22:23.667Z,13.50
2018-09-08T23:24:53.769Z,13.40
2018-09-08T23:27:23.866Z,13.20
2018-09-08T23:29:53.917Z,13.30
2018-09-08T23:32:23.817Z,13.40
2018-09-08T23:34:53.910Z,13.50
2018-09-08T23:37:24.390Z,13.20
2018-09-08T23:39:53.503Z,13.10
2018-09-08T23:42:22.631Z,13.00
2018-09-08T23:44:52.844Z,12.90
2018-09-08T23:47:22.003Z,13.00
2018-09-08T23:49:51.094Z,12.90
2018-09-08T23:52:20.448Z,12.80
2018-09-08T23:54:50.238Z,13.10
2018-09-08T23:57:20.188Z,12.60
2018-09-08T23:59:49.457Z,12.60
